Time;durP1;ratioP1;P1;durP2;ratioP2;P2;SDS_P1;SDS_P2;PMS_P1;PMS_P2;Temp;Humidity;BMP_temperature;BMP_pressure;BME280_temperature;BME280_humidity;BME280_pressure;Samples;Min_cycle;Max_cycle;Signal;HPM_P1;HPM_P2
2022/01/16 00:04:47;;;;;;;3.22;0.90;;;;;;;;;;4410485;32;20382;-50
2022/01/16 00:07:15;;;;;;;4.25;1.17;;;;;;;;;;4411226;32;20035;-53
2022/01/16 00:09:43;;;;;;;4.25;1.15;;;;;;;;;;4406506;32;20099;-50
2022/01/16 00:12:12;;;;;;;2.33;0.70;;;;;;;;;;4412502;32;20046;-52
2022/01/16 00:14:40;;;;;;;3.30;1.02;;;;;;;;;;4411457;32;20103;-51
2022/01/16 00:17:08;;;;;;;3.35;0.80;;;;;;;;;;4416836;32;20042;-50
2022/01/16 00:19:37;;;;;;;3.80;0.68;;;;;;;;;;4412818;32;20061;-50
2022/01/16 00:22:12;;;;;;;5.80;0.90;;;;;;;;;;4410487;32;20039;-52
2022/01/16 00:24:41;;;;;;;3.10;0.95;;;;;;;;;;4413646;32;20034;-53
2022/01/16 00:27:09;;;;;;;3.65;0.90;;;;;;;;;;4408607;32;20365;-63
2022/01/16 00:29:37;;;;;;;5.80;1.10;;;;;;;;;;4415679;32;20050;-52
2022/01/16 00:32:06;;;;;;;7.65;1.17;;;;;;;;;;4405248;32;20069;-50
2022/01/16 00:34:35;;;;;;;5.12;1.02;;;;;;;;;;4405959;32;20485;-49
2022/01/16 00:37:03;;;;;;;2.92;1.02;;;;;;;;;;4411421;32;20095;-50
2022/01/16 00:39:32;;;;;;;5.93;1.17;;;;;;;;;;4407750;32;21573;-50
2022/01/16 00:42:01;;;;;;;3.53;1.10;;;;;;;;;;4406248;32;20030;-49
2022/01/16 00:44:29;;;;;;;4.37;0.82;;;;;;;;;;4402144;32;20103;-49
2022/01/16 00:46:58;;;;;;;3.95;0.88;;;;;;;;;;4405693;32;20076;-53
2022/01/16 00:49:26;;;;;;;8.80;1.30;;;;;;;;;;4410974;32;20091;-52
2022/01/16 00:51:55;;;;;;;4.93;1.02;;;;;;;;;;4407956;32;20440;-52
2022/01/16 00:54:24;;;;;;;6.68;1.00;;;;;;;;;;4404112;32;20069;-53
2022/01/16 00:56:52;;;;;;;7.18;1.23;;;;;;;;;;4417686;32;20087;-53
2022/01/16 00:59:20;;;;;;;5.18;0.98;;;;;;;;;;4403817;32;20081;-51
2022/01/16 01:01:49;;;;;;;3.62;0.88;;;;;;;;;;4414873;32;20369;-51
2022/01/16 01:04:17;;;;;;;3.10;0.80;;;;;;;;;;4406894;32;20054;-53
2022/01/16 01:06:50;;;;;;;2.47;1.15;;;;;;;;;;4418727;32;20096;-53
2022/01/16 01:09:19;;;;;;;2.45;0.75;;;;;;;;;;4413403;32;20038;-51
2022/01/16 01:11:50;;;;;;;4.90;0.80;;;;;;;;;;4409104;32;20034;-53
2022/01/16 01:14:27;;;;;;;1.90;0.75;;;;;;;;;;4411414;32;20072;-53
2022/01/16 01:17:01;;;;;;;4.85;0.90;;;;;;;;;;4407984;32;22899;-52
2022/01/16 01:19:33;;;;;;;0.95;0.70;;;;;;;;;;4411929;32;20383;-53
2022/01/16 01:22:06;;;;;;;3.37;0.80;;;;;;;;;;4411796;32;20037;-50
2022/01/16 01:24:35;;;;;;;6.47;1.10;;;;;;;;;;4414169;32;20055;-51
2022/01/16 01:27:21;;;;;;;4.22;0.80;;;;;;;;;;4412320;32;20090;-51
2022/01/16 01:29:57;;;;;;;1.67;0.60;;;;;;;;;;4418254;32;20135;-53
2022/01/16 01:32:25;;;;;;;2.25;0.70;;;;;;;;;;4405612;32;20077;-52
2022/01/16 01:34:54;;;;;;;2.17;0.90;;;;;;;;;;4415382;32;20522;-53
2022/01/16 01:37:22;;;;;;;3.30;0.60;;;;;;;;;;4411426;32;20121;-53
2022/01/16 01:39:51;;;;;;;3.33;0.70;;;;;;;;;;4411429;32;20088;-51
2022/01/16 01:42:19;;;;;;;3.00;0.70;;;;;;;;;;4415518;32;20042;-50
2022/01/16 01:53:09;;;;;;;2.50;0.73;;;;;;;;;;4410299;32;20346;-51
2022/01/16 01:55:37;;;;;;;4.25;0.80;;;;;;;;;;4405535;32;20483;-49
2022/01/16 01:58:05;;;;;;;3.40;1.05;;;;;;;;;;4407630;32;20042;-53
2022/01/16 02:00:34;;;;;;;2.65;0.80;;;;;;;;;;4413995;32;20559;-53
2022/01/16 02:03:17;;;;;;;2.87;0.90;;;;;;;;;;4411143;32;20134;-49
2022/01/16 02:05:45;;;;;;;2.85;0.70;;;;;;;;;;4406964;32;20050;-51
2022/01/16 02:08:14;;;;;;;3.37;0.77;;;;;;;;;;4411701;32;20093;-52
2022/01/16 02:10:42;;;;;;;3.40;0.80;;;;;;;;;;4412879;32;20361;-49
2022/01/16 02:13:21;;;;;;;3.03;0.70;;;;;;;;;;4417527;32;20034;-53
2022/01/16 02:34:41;;;;;;;4.85;0.98;;;;;;;;;;4404674;32;20056;-52
2022/01/16 02:37:12;;;;;;;1.30;0.62;;;;;;;;;;4407278;32;20086;-53
2022/01/16 02:39:45;;;;;;;3.17;0.93;;;;;;;;;;4406145;32;20109;-54
2022/01/16 02:42:15;;;;;;;5.57;0.82;;;;;;;;;;4411971;32;20073;-52
2022/01/16 02:44:49;;;;;;;3.60;0.75;;;;;;;;;;4415111;32;20075;-53
2022/01/16 02:47:19;;;;;;;6.95;0.93;;;;;;;;;;4411669;32;20117;-53
2022/01/16 02:49:49;;;;;;;4.57;0.77;;;;;;;;;;4405384;32;20116;-51
2022/01/16 02:52:18;;;;;;;4.37;0.80;;;;;;;;;;4403349;32;20127;-52
2022/01/16 02:54:47;;;;;;;2.53;0.80;;;;;;;;;;4412639;32;20050;-50
2022/01/16 02:57:17;;;;;;;5.03;1.17;;;;;;;;;;4410229;32;20026;-54
2022/01/16 02:59:48;;;;;;;5.85;1.00;;;;;;;;;;4407175;32;20054;-50
2022/01/16 03:02:17;;;;;;;4.07;0.88;;;;;;;;;;4406927;32;20113;-50
2022/01/16 03:04:46;;;;;;;5.55;0.90;;;;;;;;;;4403973;32;20084;-52
2022/01/16 03:07:17;;;;;;;6.00;1.00;;;;;;;;;;4417561;32;20425;-53
2022/01/16 03:10:04;;;;;;;3.40;1.00;;;;;;;;;;4407075;32;20361;-51
2022/01/16 03:12:33;;;;;;;7.90;1.00;;;;;;;;;;4415294;32;20041;-54
2022/01/16 03:15:01;;;;;;;2.22;0.70;;;;;;;;;;4405373;32;20124;-54
2022/01/16 03:17:40;;;;;;;3.50;0.90;;;;;;;;;;4410022;32;20035;-51
2022/01/16 03:22:56;;;;;;;2.50;0.70;;;;;;;;;;4408380;32;20042;-52
2022/01/16 03:25:25;;;;;;;4.12;1.00;;;;;;;;;;4400120;32;20383;-52
2022/01/16 03:27:53;;;;;;;6.18;0.88;;;;;;;;;;4410570;32;20041;-51
2022/01/16 03:30:21;;;;;;;2.62;0.80;;;;;;;;;;4417335;32;20038;-51
2022/01/16 03:32:50;;;;;;;5.60;0.80;;;;;;;;;;4403314;32;20209;-53
2022/01/16 03:35:18;;;;;;;4.60;0.80;;;;;;;;;;4409950;32;20034;-51
2022/01/16 03:37:47;;;;;;;2.55;0.68;;;;;;;;;;4403019;32;20191;-50
2022/01/16 03:40:16;;;;;;;3.03;0.90;;;;;;;;;;4402860;32;20065;-48
2022/01/16 03:42:45;;;;;;;3.35;0.90;;;;;;;;;;4398067;32;20093;-49
2022/01/16 03:45:13;;;;;;;3.75;1.00;;;;;;;;;;4402366;32;20037;-49
2022/01/16 03:47:42;;;;;;;3.22;0.75;;;;;;;;;;4411523;32;20019;-50
2022/01/16 03:50:10;;;;;;;5.90;0.93;;;;;;;;;;4405787;32;20057;-49
2022/01/16 03:52:38;;;;;;;2.40;0.82;;;;;;;;;;4404199;32;20046;-51
2022/01/16 03:55:08;;;;;;;8.15;0.93;;;;;;;;;;4402143;32;20401;-51
2022/01/16 03:57:36;;;;;;;4.15;0.70;;;;;;;;;;4409690;32;20065;-50
2022/01/16 04:00:06;;;;;;;3.15;1.08;;;;;;;;;;4408358;32;20078;-51
2022/01/16 04:02:34;;;;;;;3.12;0.88;;;;;;;;;;4406169;32;20081;-51
2022/01/16 04:05:03;;;;;;;5.47;1.10;;;;;;;;;;4404506;32;20066;-53
2022/01/16 04:07:35;;;;;;;3.47;0.80;;;;;;;;;;4410991;32;20103;-50
2022/01/16 04:10:06;;;;;;;5.07;1.00;;;;;;;;;;4413902;32;20100;-50
2022/01/16 04:12:35;;;;;;;6.22;1.20;;;;;;;;;;4413083;32;20559;-51
2022/01/16 04:17:33;;;;;;;1.95;0.82;;;;;;;;;;4418269;32;20076;-52
2022/01/16 04:20:02;;;;;;;2.67;0.82;;;;;;;;;;4410772;32;20399;-51
2022/01/16 04:22:30;;;;;;;3.75;1.20;;;;;;;;;;4408452;32;20045;-53
2022/01/16 04:24:58;;;;;;;4.05;0.90;;;;;;;;;;4399828;32;20031;-50
2022/01/16 04:27:27;;;;;;;2.37;0.88;;;;;;;;;;4399175;32;20566;-52
2022/01/16 04:29:55;;;;;;;4.07;0.90;;;;;;;;;;4405112;32;20039;-50
2022/01/16 04:32:23;;;;;;;2.72;1.00;;;;;;;;;;4410211;32;20042;-50
2022/01/16 04:34:51;;;;;;;3.20;0.65;;;;;;;;;;4404417;32;20042;-49
2022/01/16 04:37:20;;;;;;;3.20;0.82;;;;;;;;;;4393977;32;20075;-50
2022/01/16 04:39:51;;;;;;;3.90;0.80;;;;;;;;;;4402018;32;20034;-50
2022/01/16 04:45:07;;;;;;;5.43;0.93;;;;;;;;;;4409056;32;20046;-50
2022/01/16 04:47:36;;;;;;;3.33;1.00;;;;;;;;;;4403320;32;20042;-53
2022/01/16 04:50:04;;;;;;;5.22;1.00;;;;;;;;;;4399996;32;20100;-52
2022/01/16 04:52:32;;;;;;;2.92;0.70;;;;;;;;;;4408344;32;20077;-51
2022/01/16 04:55:01;;;;;;;6.60;0.70;;;;;;;;;;4406105;32;22212;-49
2022/01/16 04:57:29;;;;;;;5.35;0.95;;;;;;;;;;4412583;32;20053;-49
2022/01/16 04:59:57;;;;;;;4.80;0.95;;;;;;;;;;4408743;32;20071;-49
2022/01/16 05:02:26;;;;;;;5.47;1.15;;;;;;;;;;4404027;32;20106;-51
2022/01/16 05:04:54;;;;;;;3.30;0.85;;;;;;;;;;4406872;32;20066;-51
2022/01/16 05:07:22;;;;;;;6.45;1.00;;;;;;;;;;4413412;32;20052;-50
2022/01/16 05:09:51;;;;;;;1.95;0.57;;;;;;;;;;4406857;32;20049;-49
2022/01/16 05:12:28;;;;;;;4.62;1.10;;;;;;;;;;4410866;32;20039;-52
2022/01/16 05:17:43;;;;;;;3.62;0.60;;;;;;;;;;4403262;32;20039;-49
2022/01/16 05:20:12;;;;;;;6.62;0.88;;;;;;;;;;4409988;32;20460;-52
2022/01/16 05:22:41;;;;;;;3.20;1.00;;;;;;;;;;4410409;32;20076;-51
2022/01/16 05:25:11;;;;;;;4.80;1.00;;;;;;;;;;4401337;32;20050;-49
2022/01/16 05:27:40;;;;;;;3.92;0.98;;;;;;;;;;4407484;32;20057;-53
2022/01/16 05:30:09;;;;;;;1.87;0.62;;;;;;;;;;4409841;32;20377;-49
2022/01/16 05:32:37;;;;;;;2.65;0.98;;;;;;;;;;4408332;32;20042;-50
2022/01/16 05:35:09;;;;;;;5.85;1.00;;;;;;;;;;4412538;32;20054;-50
2022/01/16 05:37:37;;;;;;;7.53;0.93;;;;;;;;;;4417369;32;20098;-50
2022/01/16 05:40:06;;;;;;;8.30;0.93;;;;;;;;;;4408255;32;20075;-50
2022/01/16 05:42:35;;;;;;;3.90;1.05;;;;;;;;;;4406501;32;20069;-53
2022/01/16 05:45:03;;;;;;;3.35;1.08;;;;;;;;;;4410662;32;20071;-51
2022/01/16 05:47:32;;;;;;;4.15;0.88;;;;;;;;;;4411806;32;20081;-51
2022/01/16 05:50:00;;;;;;;2.67;0.90;;;;;;;;;;4404396;32;20412;-50
2022/01/16 05:52:43;;;;;;;3.92;0.88;;;;;;;;;;4409000;32;20055;-51
2022/01/16 05:55:13;;;;;;;4.18;0.90;;;;;;;;;;4409368;32;20050;-51
2022/01/16 05:57:41;;;;;;;4.12;0.80;;;;;;;;;;4414372;32;20160;-50
2022/01/16 06:00:10;;;;;;;7.20;1.02;;;;;;;;;;4417136;32;20497;-50
2022/01/16 06:02:39;;;;;;;8.52;1.10;;;;;;;;;;4407833;32;20081;-50
2022/01/16 06:05:08;;;;;;;4.87;1.02;;;;;;;;;;4408759;32;20061;-49
2022/01/16 06:07:36;;;;;;;5.43;1.02;;;;;;;;;;4415320;32;20046;-49
2022/01/16 06:10:05;;;;;;;5.15;0.80;;;;;;;;;;4408872;32;20136;-52
2022/01/16 06:12:33;;;;;;;3.28;0.77;;;;;;;;;;4407346;32;20058;-49
2022/01/16 06:15:02;;;;;;;4.60;1.15;;;;;;;;;;4415488;32;20034;-50
2022/01/16 06:17:30;;;;;;;3.58;1.15;;;;;;;;;;4414451;32;20045;-52
2022/01/16 06:19:58;;;;;;;4.20;0.88;;;;;;;;;;4419295;32;20386;-50
2022/01/16 06:22:27;;;;;;;5.00;0.88;;;;;;;;;;4415560;32;20089;-51
2022/01/16 06:24:55;;;;;;;4.20;1.20;;;;;;;;;;4413597;32;20066;-49
2022/01/16 06:27:24;;;;;;;4.62;1.00;;;;;;;;;;4406120;32;20026;-51
2022/01/16 06:29:52;;;;;;;4.95;1.02;;;;;;;;;;4405068;32;20038;-53
2022/01/16 06:32:21;;;;;;;5.25;0.93;;;;;;;;;;4412956;32;20086;-49
2022/01/16 06:34:49;;;;;;;1.75;0.85;;;;;;;;;;4414212;32;20070;-53
2022/01/16 06:37:18;;;;;;;4.72;0.88;;;;;;;;;;4420045;32;20098;-50
2022/01/16 06:39:47;;;;;;;5.62;1.33;;;;;;;;;;4404946;32;20039;-49
2022/01/16 06:42:15;;;;;;;6.78;0.85;;;;;;;;;;4411325;32;20081;-49
2022/01/16 06:44:43;;;;;;;4.93;0.80;;;;;;;;;;4406195;32;20050;-50
2022/01/16 06:47:12;;;;;;;4.78;0.85;;;;;;;;;;4405597;32;20043;-48
2022/01/16 06:49:41;;;;;;;5.15;1.20;;;;;;;;;;4410493;32;20042;-53
2022/01/16 06:52:09;;;;;;;5.75;1.00;;;;;;;;;;4407598;32;20446;-51
2022/01/16 06:54:39;;;;;;;6.07;0.95;;;;;;;;;;4408598;32;20131;-51
2022/01/16 06:57:08;;;;;;;4.10;1.15;;;;;;;;;;4420764;32;20490;-50
2022/01/16 06:59:38;;;;;;;4.47;0.90;;;;;;;;;;4414370;32;20107;-51
2022/01/16 07:02:07;;;;;;;4.90;1.00;;;;;;;;;;4414634;32;20461;-49
2022/01/16 07:04:35;;;;;;;5.72;1.20;;;;;;;;;;4411322;32;20097;-50
2022/01/16 07:07:03;;;;;;;5.47;0.82;;;;;;;;;;4413925;32;20078;-52
2022/01/16 07:09:32;;;;;;;4.05;1.10;;;;;;;;;;4409439;32;20052;-50
2022/01/16 07:12:00;;;;;;;6.18;1.20;;;;;;;;;;4412931;32;20052;-50
2022/01/16 07:14:29;;;;;;;5.20;0.98;;;;;;;;;;4415401;32;20022;-51
2022/01/16 07:16:57;;;;;;;5.40;1.02;;;;;;;;;;4412704;32;20046;-49
2022/01/16 07:19:25;;;;;;;3.42;0.98;;;;;;;;;;4409632;32;20110;-52
2022/01/16 07:21:54;;;;;;;2.97;0.82;;;;;;;;;;4411719;32;20038;-50
2022/01/16 07:24:23;;;;;;;5.62;1.15;;;;;;;;;;4413632;32;20386;-52
2022/01/16 07:26:51;;;;;;;5.12;0.93;;;;;;;;;;4411934;32;20035;-50
2022/01/16 07:29:20;;;;;;;6.65;1.20;;;;;;;;;;4404270;32;20023;-49
2022/01/16 07:31:48;;;;;;;4.57;1.20;;;;;;;;;;4407786;32;20054;-49
2022/01/16 07:34:16;;;;;;;5.68;1.00;;;;;;;;;;4410056;32;20078;-49
2022/01/16 07:36:45;;;;;;;4.70;0.98;;;;;;;;;;4411990;32;20078;-49
2022/01/16 07:39:14;;;;;;;3.80;1.20;;;;;;;;;;4407795;32;20062;-49
2022/01/16 07:41:42;;;;;;;6.68;1.10;;;;;;;;;;4412240;32;20060;-49
2022/01/16 07:44:10;;;;;;;4.00;1.00;;;;;;;;;;4418536;32;20095;-51
2022/01/16 07:46:39;;;;;;;4.10;1.02;;;;;;;;;;4408809;32;20063;-49
2022/01/16 07:49:07;;;;;;;7.68;1.02;;;;;;;;;;4412124;32;20063;-49
2022/01/16 07:51:35;;;;;;;2.55;0.80;;;;;;;;;;4417521;32;20073;-49
2022/01/16 07:54:04;;;;;;;3.90;0.85;;;;;;;;;;4416317;32;20039;-48
2022/01/16 07:56:32;;;;;;;4.45;1.10;;;;;;;;;;4408209;32;20045;-50
2022/01/16 07:59:01;;;;;;;5.32;1.20;;;;;;;;;;4409898;32;20384;-50
2022/01/16 08:01:29;;;;;;;6.00;1.10;;;;;;;;;;4406353;32;20051;-49
2022/01/16 08:03:58;;;;;;;4.95;1.30;;;;;;;;;;4414058;32;20022;-50
2022/01/16 08:06:31;;;;;;;4.07;1.00;;;;;;;;;;4418111;32;20655;-49
2022/01/16 08:09:00;;;;;;;4.03;1.08;;;;;;;;;;4409844;32;20039;-50
2022/01/16 08:11:29;;;;;;;5.97;0.90;;;;;;;;;;4408456;32;20065;-50
2022/01/16 08:13:57;;;;;;;4.30;0.93;;;;;;;;;;4413441;32;20046;-50
2022/01/16 08:16:25;;;;;;;8.15;1.20;;;;;;;;;;4408101;32;20059;-53
2022/01/16 08:18:54;;;;;;;10.05;1.00;;;;;;;;;;4409513;32;20128;-49
2022/01/16 08:21:22;;;;;;;5.97;1.40;;;;;;;;;;4411095;32;20485;-49
2022/01/16 08:23:51;;;;;;;2.40;1.02;;;;;;;;;;4403750;32;20053;-51
2022/01/16 08:26:20;;;;;;;2.60;0.95;;;;;;;;;;4409690;32;20038;-52
2022/01/16 08:28:48;;;;;;;4.50;0.98;;;;;;;;;;4404642;32;20041;-52
2022/01/16 08:31:16;;;;;;;4.93;0.90;;;;;;;;;;4412498;32;20076;-50
2022/01/16 08:33:45;;;;;;;3.85;1.10;;;;;;;;;;4418167;32;20069;-52
2022/01/16 08:36:13;;;;;;;3.78;1.00;;;;;;;;;;4410455;32;20079;-50
2022/01/16 08:38:42;;;;;;;4.20;1.15;;;;;;;;;;4411246;32;20430;-52
2022/01/16 08:41:10;;;;;;;4.82;1.23;;;;;;;;;;4401748;32;20058;-50
2022/01/16 08:43:38;;;;;;;4.68;1.02;;;;;;;;;;4411942;32;20038;-50
2022/01/16 08:46:07;;;;;;;2.05;1.10;;;;;;;;;;4406057;32;20046;-49
2022/01/16 08:48:35;;;;;;;5.20;1.08;;;;;;;;;;4410690;32;20070;-50
2022/01/16 08:51:03;;;;;;;3.65;0.93;;;;;;;;;;4409711;32;20418;-50
2022/01/16 08:53:32;;;;;;;4.90;1.17;;;;;;;;;;4412111;32;20046;-51
2022/01/16 08:56:00;;;;;;;7.50;0.95;;;;;;;;;;4413881;32;20047;-51
2022/01/16 08:58:29;;;;;;;4.60;1.00;;;;;;;;;;4401584;32;20092;-50
2022/01/16 09:00:57;;;;;;;4.65;1.23;;;;;;;;;;4412361;32;20074;-49
2022/01/16 09:03:26;;;;;;;3.85;1.10;;;;;;;;;;4414894;32;20463;-50
2022/01/16 09:05:54;;;;;;;4.87;1.27;;;;;;;;;;4412137;32;20423;-53
2022/01/16 09:08:23;;;;;;;1.80;0.73;;;;;;;;;;4408299;32;20428;-50
2022/01/16 09:10:51;;;;;;;3.42;1.08;;;;;;;;;;4407606;32;20099;-50
2022/01/16 09:13:19;;;;;;;4.03;0.80;;;;;;;;;;4410278;32;21295;-50
2022/01/16 09:15:49;;;;;;;4.43;0.98;;;;;;;;;;4407926;32;20050;-51
2022/01/16 09:18:18;;;;;;;5.53;0.98;;;;;;;;;;4409534;32;20022;-51
2022/01/16 09:20:47;;;;;;;3.87;1.17;;;;;;;;;;4411867;32;20125;-50
2022/01/16 09:23:15;;;;;;;7.90;1.10;;;;;;;;;;4411149;32;20081;-50
2022/01/16 09:25:44;;;;;;;4.95;0.82;;;;;;;;;;4412556;32;20050;-50
2022/01/16 09:28:12;;;;;;;4.18;1.05;;;;;;;;;;4404692;32;20046;-53
2022/01/16 09:30:42;;;;;;;4.97;0.90;;;;;;;;;;4402820;32;20038;-51
2022/01/16 09:33:10;;;;;;;4.53;1.10;;;;;;;;;;4410544;32;20038;-52
2022/01/16 09:35:38;;;;;;;5.43;1.35;;;;;;;;;;4405239;32;20027;-52
2022/01/16 09:38:07;;;;;;;6.45;1.30;;;;;;;;;;4416572;32;20046;-49
2022/01/16 09:40:36;;;;;;;8.27;1.20;;;;;;;;;;4413662;32;20108;-52
2022/01/16 09:43:04;;;;;;;9.32;1.23;;;;;;;;;;4407075;32;20045;-49
2022/01/16 09:45:33;;;;;;;2.25;0.80;;;;;;;;;;4410319;32;20084;-49
2022/01/16 09:48:02;;;;;;;7.60;1.00;;;;;;;;;;4415504;32;20026;-51
2022/01/16 09:50:30;;;;;;;7.35;1.20;;;;;;;;;;4416365;32;20046;-49
2022/01/16 09:53:00;;;;;;;7.15;1.27;;;;;;;;;;4405739;32;20042;-53
2022/01/16 09:55:28;;;;;;;4.78;1.05;;;;;;;;;;4406957;32;20061;-51
2022/01/16 09:57:57;;;;;;;3.67;1.10;;;;;;;;;;4404455;32;20050;-49
2022/01/16 10:00:26;;;;;;;5.60;0.93;;;;;;;;;;4409765;32;20105;-51
2022/01/16 10:02:57;;;;;;;7.72;1.35;;;;;;;;;;4411043;32;20242;-50
2022/01/16 10:05:28;;;;;;;4.70;1.23;;;;;;;;;;4414089;32;20381;-50
2022/01/16 10:07:58;;;;;;;6.03;1.05;;;;;;;;;;4416119;32;20058;-51
2022/01/16 10:10:28;;;;;;;6.87;1.20;;;;;;;;;;4410934;32;20086;-51
2022/01/16 10:13:05;;;;;;;8.38;1.05;;;;;;;;;;4412785;32;20054;-53
2022/01/16 10:15:34;;;;;;;5.40;1.27;;;;;;;;;;4416857;32;20043;-50
2022/01/16 10:18:05;;;;;;;5.80;1.27;;;;;;;;;;4411158;32;20078;-49
2022/01/16 10:20:41;;;;;;;8.15;1.48;;;;;;;;;;4406187;32;20098;-50
2022/01/16 10:23:18;;;;;;;4.12;1.20;;;;;;;;;;4412389;32;20042;-49
2022/01/16 10:25:47;;;;;;;10.05;1.65;;;;;;;;;;4411379;32;20563;-52
2022/01/16 10:28:20;;;;;;;14.02;1.50;;;;;;;;;;4404530;32;20054;-50
2022/01/16 10:30:50;;;;;;;19.25;2.37;;;;;;;;;;4409334;32;20042;-49
2022/01/16 10:33:20;;;;;;;15.32;2.00;;;;;;;;;;4410290;32;20208;-52
2022/01/16 10:35:50;;;;;;;13.23;2.08;;;;;;;;;;4410886;32;20057;-51
2022/01/16 10:38:26;;;;;;;17.75;2.25;;;;;;;;;;4403363;32;20047;-50
2022/01/16 10:40:56;;;;;;;13.00;1.92;;;;;;;;;;4406636;32;20042;-51
2022/01/16 10:43:41;;;;;;;18.02;1.77;;;;;;;;;;4413172;32;20054;-50
2022/01/16 10:46:11;;;;;;;11.43;1.65;;;;;;;;;;4408824;32;20389;-51
2022/01/16 10:49:14;;;;;;;13.68;1.83;;;;;;;;;;4410952;32;20042;-50
2022/01/16 10:51:42;;;;;;;;;;;;;;;;;;4416050;32;20034;-49
2022/01/16 10:54:34;;;;;;;12.02;2.03;;;;;;;;;;4408474;32;20037;-49
2022/01/16 10:57:18;;;;;;;14.80;1.83;;;;;;;;;;4408314;32;20502;-49
2022/01/16 10:59:46;;;;;;;12.23;1.87;;;;;;;;;;4410271;32;20362;-50
2022/01/16 11:02:15;;;;;;;14.65;1.77;;;;;;;;;;4405469;32;20123;-51
2022/01/16 11:04:44;;;;;;;17.48;2.42;;;;;;;;;;4415231;32;20100;-51
2022/01/16 11:07:13;;;;;;;19.60;1.90;;;;;;;;;;4408282;32;20034;-50
2022/01/16 11:09:41;;;;;;;17.45;1.80;;;;;;;;;;4402983;32;20038;-51
2022/01/16 11:12:09;;;;;;;9.00;1.70;;;;;;;;;;4412611;32;20043;-50
2022/01/16 11:14:38;;;;;;;12.77;2.15;;;;;;;;;;4416204;32;20090;-49
2022/01/16 11:17:06;;;;;;;14.35;1.95;;;;;;;;;;4414748;32;20244;-49
2022/01/16 11:19:35;;;;;;;19.05;2.12;;;;;;;;;;4414118;32;20047;-51
2022/01/16 11:22:09;;;;;;;13.98;1.85;;;;;;;;;;4408677;32;20068;-50
2022/01/16 11:25:00;;;;;;;15.88;2.12;;;;;;;;;;4410748;32;20425;-49
2022/01/16 11:27:40;;;;;;;18.02;2.08;;;;;;;;;;4408361;32;20038;-49
2022/01/16 11:30:08;;;;;;;12.48;2.20;;;;;;;;;;4412464;32;20104;-50
2022/01/16 11:32:36;;;;;;;15.98;2.35;;;;;;;;;;4404547;32;20061;-52
2022/01/16 11:35:06;;;;;;;12.75;1.92;;;;;;;;;;4408390;32;20058;-53
2022/01/16 11:37:35;;;;;;;9.18;1.65;;;;;;;;;;4412501;32;20054;-50
2022/01/16 11:40:27;;;;;;;15.98;2.35;;;;;;;;;;4404070;32;20412;-51
2022/01/16 11:43:12;;;;;;;15.55;2.10;;;;;;;;;;4407574;32;20469;-49
2022/01/16 11:45:51;;;;;;;10.07;1.95;;;;;;;;;;4408282;32;20058;-53
2022/01/16 11:48:40;;;;;;;10.88;1.70;;;;;;;;;;4406381;32;20058;-52
2022/01/16 11:51:36;;;;;;;15.55;2.20;;;;;;;;;;4401053;32;20069;-49
2022/01/16 11:54:24;;;;;;;19.80;2.10;;;;;;;;;;4396735;32;20148;-52
2022/01/16 11:56:57;;;;;;;16.10;2.08;;;;;;;;;;4402656;32;20457;-49
2022/01/16 11:59:44;;;;;;;13.15;1.85;;;;;;;;;;4398431;32;20132;-52
2022/01/16 12:02:12;;;;;;;22.58;2.60;;;;;;;;;;4402611;32;20075;-53
2022/01/16 12:04:44;;;;;;;16.80;2.17;;;;;;;;;;4408772;32;20091;-49
2022/01/16 12:07:13;;;;;;;14.18;1.98;;;;;;;;;;4407029;32;20061;-50
2022/01/16 12:12:12;;;;;;;16.65;2.17;;;;;;;;;;4414322;32;20065;-53
2022/01/16 12:14:47;;;;;;;18.12;2.37;;;;;;;;;;4403715;32;20049;-49
2022/01/16 12:17:15;;;;;;;;;;;;;;;;;;4405520;32;20109;-52
2022/01/16 12:19:45;;;;;;;23.35;2.97;;;;;;;;;;4406144;32;19937;-50
2022/01/16 12:22:15;;;;;;;16.52;2.17;;;;;;;;;;4412384;32;20101;-49
2022/01/16 12:25:03;;;;;;;13.70;1.83;;;;;;;;;;4407762;32;20485;-50
2022/01/16 12:27:47;;;;;;;18.23;2.40;;;;;;;;;;4414233;32;20050;-49
2022/01/16 12:30:17;;;;;;;28.23;2.42;;;;;;;;;;4420081;32;20102;-49
2022/01/16 12:33:00;;;;;;;18.73;2.20;;;;;;;;;;4412990;32;20124;-50
2022/01/16 12:35:50;;;;;;;17.90;2.60;;;;;;;;;;4406256;32;20152;-51
2022/01/16 12:38:23;;;;;;;21.50;2.33;;;;;;;;;;4410513;32;20038;-50
2022/01/16 12:41:10;;;;;;;22.65;2.65;;;;;;;;;;4412496;32;20521;-50
2022/01/16 12:43:41;;;;;;;15.18;2.55;;;;;;;;;;4406533;32;20071;-50
2022/01/16 12:46:18;;;;;;;20.15;3.00;;;;;;;;;;4407805;32;20050;-52
2022/01/16 12:48:51;;;;;;;21.23;2.78;;;;;;;;;;4417000;32;20058;-49
2022/01/16 12:51:29;;;;;;;17.85;2.65;;;;;;;;;;4422626;32;20037;-49
2022/01/16 12:54:04;;;;;;;20.88;2.95;;;;;;;;;;4418878;32;20038;-48
2022/01/16 12:56:32;;;;;;;25.27;2.80;;;;;;;;;;4419648;32;20042;-49
2022/01/16 12:59:11;;;;;;;24.73;2.87;;;;;;;;;;4406799;32;20088;-49
2022/01/16 13:01:44;;;;;;;26.02;3.33;;;;;;;;;;4404459;32;20059;-49
2022/01/16 13:04:19;;;;;;;23.48;3.12;;;;;;;;;;4405866;32;20034;-51
2022/01/16 13:06:47;;;;;;;;;;;;;;;;;;4407848;32;20034;-51
2022/01/16 13:09:16;;;;;;;24.80;2.95;;;;;;;;;;4406272;32;19961;-50
2022/01/16 13:11:49;;;;;;;20.05;3.10;;;;;;;;;;4405697;32;20479;-50
2022/01/16 13:14:23;;;;;;;20.85;2.70;;;;;;;;;;4415557;32;20048;-50
2022/01/16 13:16:52;;;;;;;24.87;2.87;;;;;;;;;;4410493;32;20339;-61
2022/01/16 13:19:22;;;;;;;72.25;7.65;;;;;;;;;;4414804;32;20050;-51
2022/01/16 13:22:01;;;;;;;60.05;7.03;;;;;;;;;;4413812;32;20054;-53
2022/01/16 13:24:31;;;;;;;72.75;7.78;;;;;;;;;;4419982;32;20038;-49
2022/01/16 13:27:00;;;;;;;64.57;8.18;;;;;;;;;;4410691;32;20045;-50
2022/01/16 13:29:29;;;;;;;68.75;7.70;;;;;;;;;;4408206;32;20497;-50
2022/01/16 13:31:58;;;;;;;63.90;7.47;;;;;;;;;;4405326;32;20422;-49
2022/01/16 13:34:34;;;;;;;67.72;6.78;;;;;;;;;;4406562;32;20094;-52
2022/01/16 13:37:05;;;;;;;57.20;7.00;;;;;;;;;;4406743;32;20113;-50
2022/01/16 13:39:43;;;;;;;78.97;7.32;;;;;;;;;;4412583;32;20053;-51
2022/01/16 13:42:12;;;;;;;59.83;6.80;;;;;;;;;;4409903;32;20049;-50
2022/01/16 13:44:41;;;;;;;61.15;7.32;;;;;;;;;;4405901;32;20431;-50
2022/01/16 13:47:10;;;;;;;57.00;7.43;;;;;;;;;;4411415;32;20056;-51
2022/01/16 13:49:49;;;;;;;61.40;6.70;;;;;;;;;;4412186;32;20175;-50
2022/01/16 13:52:25;;;;;;;63.00;7.12;;;;;;;;;;4410328;32;20326;-49
2022/01/16 13:55:14;;;;;;;46.58;6.68;;;;;;;;;;4413165;32;20472;-51
2022/01/16 13:57:42;;;;;;;68.55;6.90;;;;;;;;;;4408592;32;20054;-51
2022/01/16 14:00:11;;;;;;;64.55;7.28;;;;;;;;;;4410261;32;20474;-50
2022/01/16 14:02:42;;;;;;;50.42;6.55;;;;;;;;;;4407098;32;20086;-51
2022/01/16 14:05:20;;;;;;;55.97;6.90;;;;;;;;;;4410747;32;20386;-49
2022/01/16 14:07:49;;;;;;;61.45;6.55;;;;;;;;;;4414596;32;20093;-49
2022/01/16 14:10:37;;;;;;;40.95;5.62;;;;;;;;;;4413475;32;20044;-49
2022/01/16 14:13:10;;;;;;;53.85;6.35;;;;;;;;;;4404728;32;20042;-49
2022/01/16 14:15:39;;;;;;;46.50;6.55;;;;;;;;;;4410108;32;20438;-50
2022/01/16 14:18:15;;;;;;;56.25;6.32;;;;;;;;;;4408587;32;20038;-51
2022/01/16 14:21:58;;;;;;;57.28;6.87;;;;;;;;;;4413557;32;20064;-50
2022/01/16 14:23:41;;;;;;;63.35;8.35;;;;;;;;;;4409487;32;20046;-50
2022/01/16 14:26:09;;;;;;;53.87;7.25;;;;;;;;;;4407018;32;20055;-50
2022/01/16 14:28:38;;;;;;;56.22;7.35;;;;;;;;;;4405460;32;20128;-52
2022/01/16 14:31:07;;;;;;;67.93;6.78;;;;;;;;;;4413686;32;20096;-51
2022/01/16 14:33:50;;;;;;;66.53;7.60;;;;;;;;;;4407003;32;20360;-52
2022/01/16 14:36:19;;;;;;;62.45;7.20;;;;;;;;;;4408568;32;20046;-50
2022/01/16 14:38:47;;;;;;;65.70;7.10;;;;;;;;;;4405104;32;20497;-50
2022/01/16 14:41:17;;;;;;;66.70;7.95;;;;;;;;;;4417199;32;20038;-50
2022/01/16 14:43:54;;;;;;;62.83;7.45;;;;;;;;;;4411222;32;20361;-50
2022/01/16 14:46:23;;;;;;;64.30;7.75;;;;;;;;;;4410457;32;20464;-49
2022/01/16 14:48:52;;;;;;;71.95;7.53;;;;;;;;;;4413080;32;20049;-49
2022/01/16 14:51:21;;;;;;;69.32;8.75;;;;;;;;;;4410287;32;20065;-50
2022/01/16 14:53:49;;;;;;;56.03;7.95;;;;;;;;;;4408345;32;20060;-50
2022/01/16 14:56:18;;;;;;;56.53;7.57;;;;;;;;;;4416570;32;20026;-52
2022/01/16 14:58:47;;;;;;;57.25;7.90;;;;;;;;;;4410061;32;20228;-53
2022/01/16 15:01:16;;;;;;;62.35;7.57;;;;;;;;;;4405971;32;20030;-49
2022/01/16 15:03:44;;;;;;;70.18;9.43;;;;;;;;;;4414755;32;20061;-53
2022/01/16 15:06:13;;;;;;;56.03;7.55;;;;;;;;;;4416089;32;20050;-50
2022/01/16 15:08:45;;;;;;;56.17;7.53;;;;;;;;;;4406046;32;20064;-50
2022/01/16 15:11:15;;;;;;;60.92;6.80;;;;;;;;;;4415901;32;20034;-50
2022/01/16 15:13:44;;;;;;;59.83;7.35;;;;;;;;;;4411796;32;20030;-50
2022/01/16 15:16:15;;;;;;;63.45;8.55;;;;;;;;;;4410313;32;20034;-51
2022/01/16 15:18:44;;;;;;;60.30;7.70;;;;;;;;;;4408101;32;20439;-51
2022/01/16 15:21:15;;;;;;;66.43;7.95;;;;;;;;;;4406440;32;20369;-50
2022/01/16 15:23:44;;;;;;;49.00;7.93;;;;;;;;;;4414880;32;20038;-50
2022/01/16 15:26:12;;;;;;;54.83;7.50;;;;;;;;;;4404268;32;20049;-53
2022/01/16 15:28:40;;;;;;;51.60;7.22;;;;;;;;;;4408845;32;20105;-50
2022/01/16 15:31:09;;;;;;;58.28;6.97;;;;;;;;;;4406319;32;20030;-50
2022/01/16 15:33:37;;;;;;;61.05;8.32;;;;;;;;;;4410745;32;20054;-51
2022/01/16 15:36:05;;;;;;;58.25;7.12;;;;;;;;;;4413183;32;20416;-50
2022/01/16 15:38:36;;;;;;;54.13;8.48;;;;;;;;;;4411074;32;20080;-51
2022/01/16 15:41:04;;;;;;;57.67;8.30;;;;;;;;;;4405858;32;20034;-50
2022/01/16 15:43:32;;;;;;;51.13;7.05;;;;;;;;;;4408899;32;20076;-50